Time;durP1;ratioP1;P1;durP2;ratioP2;P2;SDS_P1;SDS_P2;PMS_P1;PMS_P2;Temp;Humidity;BMP_temperature;BMP_pressure;BME280_temperature;BME280_humidity;BME280_pressure;Samples;Min_cycle;Max_cycle;Signal;HPM_P1;HPM_P2
2022/03/24 00:01:09;;;;;;;;;;;;;;;8.14;nan;101682.22;5008545;28;20405;-70
2022/03/24 00:03:34;;;;;;;;;;;;;;;8.03;nan;101684.75;5011456;28;19924;-70
2022/03/24 00:05:59;;;;;;;;;;;;;;;7.96;nan;101683.50;5007533;28;20012;-70
2022/03/24 00:08:24;;;;;;;;;;;;;;;7.89;nan;101683.13;5010957;28;20048;-70
2022/03/24 00:10:50;;;;;;;;;;;;;;;7.80;nan;101678.47;5011047;28;19924;-70
2022/03/24 00:13:15;;;;;;;;;;;;;;;7.78;nan;101683.84;5005752;28;19921;-70
2022/03/24 00:15:40;;;;;;;;;;;;;;;7.73;nan;101691.22;5010114;28;20013;-69
2022/03/24 00:18:07;;;;;;;;;;;;;;;7.74;nan;101679.72;5008584;28;20361;-70
2022/03/24 00:20:34;;;;;;;;;;;;;;;7.71;nan;101679.09;5003152;28;20551;-70
2022/03/24 00:22:59;;;;;;;;;;;;;;;7.70;nan;101673.00;5007330;28;19932;-70
2022/03/24 00:25:24;;;;;;;;;;;;;;;7.67;nan;101678.44;5011199;28;19917;-70
2022/03/24 00:27:50;;;;;;;;;;;;;;;7.61;nan;101678.88;5009233;28;20000;-70
2022/03/24 00:30:15;;;;;;;;;;;;;;;7.54;nan;101680.25;5012087;28;19964;-69
2022/03/24 00:32:40;;;;;;;;;;;;;;;7.43;nan;101671.28;5014411;28;19917;-70
2022/03/24 00:35:06;;;;;;;;;;;;;;;7.39;nan;101679.50;5010767;28;20538;-70
2022/03/24 00:37:32;;;;;;;;;;;;;;;7.42;nan;101669.59;5010707;28;19972;-70
2022/03/24 00:40:00;;;;;;;;;;;;;;;7.45;nan;101676.44;5010797;28;19917;-71
2022/03/24 00:42:26;;;;;;;;;;;;;;;7.36;nan;101675.25;5009834;28;20279;-71
2022/03/24 00:44:51;;;;;;;;;;;;;;;7.28;nan;101672.31;5004614;28;19918;-71
2022/03/24 00:47:16;;;;;;;;;;;;;;;7.16;nan;101671.34;5010295;28;19924;-71
2022/03/24 00:49:42;;;;;;;;;;;;;;;7.04;nan;101666.06;5011592;28;20356;-71
2022/03/24 00:52:09;;;;;;;;;;;;;;;6.90;nan;101666.94;4992923;28;19924;-71
2022/03/24 00:54:34;;;;;;;;;;;;;;;6.80;nan;101666.69;5010663;28;19953;-71
2022/03/24 00:57:01;;;;;;;;;;;;;;;6.69;nan;101662.13;5010929;28;19951;-71
2022/03/24 00:59:27;;;;;;;;;;;;;;;6.61;nan;101661.78;5005735;28;19921;-71
2022/03/24 01:01:54;;;;;;;;;;;;;;;6.52;nan;101657.94;5010955;28;19913;-71
2022/03/24 01:04:20;;;;;;;;;;;;;;;6.44;nan;101660.22;5011352;28;20424;-70
2022/03/24 01:06:45;;;;;;;;;;;;;;;6.40;nan;101663.16;5010790;28;19972;-71
2022/03/24 01:09:10;;;;;;;;;;;;;;;6.40;nan;101660.53;5009697;28;19917;-71
2022/03/24 01:11:35;;;;;;;;;;;;;;;6.36;nan;101658.09;5011263;28;19921;-71
2022/03/24 01:14:01;;;;;;;;;;;;;;;6.31;nan;101661.94;5009971;28;19918;-71
2022/03/24 01:16:26;;;;;;;;;;;;;;;6.22;nan;101663.38;5011478;28;19920;-71
2022/03/24 01:18:52;;;;;;;;;;;;;;;6.11;nan;101665.81;5009670;28;19971;-70
2022/03/24 01:21:17;;;;;;;;;;;;;;;5.98;nan;101660.44;5010043;28;19924;-71
2022/03/24 01:23:44;;;;;;;;;;;;;;;5.85;nan;101652.47;5010105;28;20016;-71
2022/03/24 01:26:11;;;;;;;;;;;;;;;5.73;nan;101656.66;5009015;28;19921;-71
2022/03/24 01:28:36;;;;;;;;;;;;;;;5.65;nan;101653.69;5010073;28;19969;-71
2022/03/24 01:31:02;;;;;;;;;;;;;;;5.65;nan;101660.69;4997111;28;19921;-70
2022/03/24 01:33:27;;;;;;;;;;;;;;;5.61;nan;101660.03;5011017;28;19916;-70
2022/03/24 01:35:52;;;;;;;;;;;;;;;5.59;nan;101661.06;5001389;28;19956;-70
2022/03/24 01:38:17;;;;;;;;;;;;;;;5.52;nan;101653.56;5009533;28;19920;-70
2022/03/24 01:40:43;;;;;;;;;;;;;;;5.45;nan;101656.63;5009546;28;19918;-71
2022/03/24 01:43:08;;;;;;;;;;;;;;;5.32;nan;101657.38;5005983;28;20378;-71
2022/03/24 01:45:34;;;;;;;;;;;;;;;5.21;nan;101651.06;5005758;28;19956;-70
2022/03/24 01:47:59;;;;;;;;;;;;;;;5.10;nan;101659.53;5009256;28;20174;-71
2022/03/24 01:50:25;;;;;;;;;;;;;;;5.00;nan;101653.13;5009452;28;20025;-71
2022/03/24 01:52:50;;;;;;;;;;;;;;;4.90;nan;101650.19;5005206;28;20004;-70
2022/03/24 01:55:16;;;;;;;;;;;;;;;4.81;nan;101643.69;5008620;28;20393;-71
2022/03/24 01:57:41;;;;;;;;;;;;;;;4.78;nan;101645.66;5009711;28;19925;-70
2022/03/24 02:00:08;;;;;;;;;;;;;;;4.72;nan;101646.00;5009434;28;20044;-71
2022/03/24 02:02:33;;;;;;;;;;;;;;;4.67;nan;101644.50;4997097;28;19919;-71
2022/03/24 02:04:59;;;;;;;;;;;;;;;4.67;nan;101641.00;4991563;28;20397;-70
2022/03/24 02:07:24;;;;;;;;;;;;;;;4.63;nan;101648.22;5005695;28;19953;-71
2022/03/24 02:09:49;;;;;;;;;;;;;;;4.58;nan;101646.78;5009708;28;20008;-71
2022/03/24 02:12:15;;;;;;;;;;;;;;;4.49;nan;101645.50;5008190;28;19951;-71
2022/03/24 02:14:40;;;;;;;;;;;;;;;4.43;nan;101645.84;5009407;28;19966;-70
2022/03/24 02:17:06;;;;;;;;;;;;;;;4.37;nan;101641.78;5004200;28;19922;-70
2022/03/24 02:19:31;;;;;;;;;;;;;;;4.31;nan;101644.72;5009517;28;19937;-71
2022/03/24 02:21:58;;;;;;;;;;;;;;;4.27;nan;101640.63;5009310;28;19956;-70
2022/03/24 02:24:25;;;;;;;;;;;;;;;4.22;nan;101643.47;5007792;28;20390;-70
2022/03/24 02:26:51;;;;;;;;;;;;;;;4.15;nan;101652.59;5009455;28;19917;-71
2022/03/24 02:29:17;;;;;;;;;;;;;;;4.08;nan;101651.22;5005616;28;19925;-70
2022/03/24 02:31:46;;;;;;;;;;;;;;;4.00;nan;101653.41;5003419;28;19929;-70
2022/03/24 02:37:00;;;;;;;;;;;;;;;3.86;nan;101654.13;5012078;28;19944;-70
2022/03/24 02:39:25;;;;;;;;;;;;;;;3.85;nan;101654.22;5002798;28;19921;-71
2022/03/24 02:41:52;;;;;;;;;;;;;;;3.84;nan;101650.78;5009781;28;20167;-71
2022/03/24 02:44:22;;;;;;;;;;;;;;;3.84;nan;101658.63;5008427;28;19917;-70
2022/03/24 02:46:48;;;;;;;;;;;;;;;3.82;nan;101658.69;5007139;28;19917;-71
2022/03/24 02:49:13;;;;;;;;;;;;;;;3.79;nan;101663.22;5004823;28;20316;-70
2022/03/24 02:51:39;;;;;;;;;;;;;;;3.76;nan;101658.16;5003314;28;19928;-70
2022/03/24 02:54:04;;;;;;;;;;;;;;;3.72;nan;101665.34;5009274;28;19968;-70
2022/03/24 02:56:30;;;;;;;;;;;;;;;3.70;nan;101656.72;5008508;28;19923;-70
2022/03/24 02:58:55;;;;;;;;;;;;;;;3.69;nan;101657.63;5008283;28;19951;-71
2022/03/24 03:01:21;;;;;;;;;;;;;;;3.66;nan;101660.41;5005163;28;20008;-70
2022/03/24 03:03:46;;;;;;;;;;;;;;;3.62;nan;101658.88;5007241;28;19917;-70
2022/03/24 03:06:13;;;;;;;;;;;;;;;3.56;nan;101657.41;5014775;28;19943;-70
2022/03/24 03:08:38;;;;;;;;;;;;;;;3.53;nan;101657.59;5011057;28;20246;-70
2022/03/24 03:11:03;;;;;;;;;;;;;;;3.48;nan;101659.59;5012066;28;19928;-70
2022/03/24 03:13:28;;;;;;;;;;;;;;;3.44;nan;101658.06;5010124;28;19944;-70
2022/03/24 03:15:54;;;;;;;;;;;;;;;3.42;nan;101659.06;5009217;28;20397;-70
2022/03/24 03:18:19;;;;;;;;;;;;;;;3.37;nan;101664.50;5010206;28;19959;-70
2022/03/24 03:20:45;;;;;;;;;;;;;;;3.34;nan;101664.69;5007486;28;19918;-70
2022/03/24 03:23:10;;;;;;;;;;;;;;;3.31;nan;101664.81;5011558;28;19920;-70
2022/03/24 03:25:35;;;;;;;;;;;;;;;3.29;nan;101661.41;5011076;28;19928;-70
2022/03/24 03:28:01;;;;;;;;;;;;;;;3.25;nan;101668.59;5017309;28;20393;-70
2022/03/24 03:30:26;;;;;;;;;;;;;;;3.20;nan;101662.75;4993900;28;20390;-69
2022/03/24 03:32:51;;;;;;;;;;;;;;;3.18;nan;101670.66;5009603;28;19944;-69
2022/03/24 03:35:16;;;;;;;;;;;;;;;3.16;nan;101664.66;5016211;28;19917;-69
2022/03/24 03:37:41;;;;;;;;;;;;;;;3.15;nan;101670.81;5018858;28;19924;-69
2022/03/24 03:40:07;;;;;;;;;;;;;;;3.15;nan;101665.59;5011757;28;20267;-69
2022/03/24 03:42:32;;;;;;;;;;;;;;;3.16;nan;101669.88;5008840;28;20490;-69
2022/03/24 03:44:57;;;;;;;;;;;;;;;3.16;nan;101663.81;5002438;28;20326;-69
2022/03/24 03:47:22;;;;;;;;;;;;;;;3.16;nan;101677.72;5010388;28;19921;-69
2022/03/24 03:49:48;;;;;;;;;;;;;;;3.15;nan;101664.75;5010043;28;19968;-69
2022/03/24 03:52:13;;;;;;;;;;;;;;;3.12;nan;101665.75;5010653;28;20350;-69
2022/03/24 03:54:38;;;;;;;;;;;;;;;3.08;nan;101658.97;5009981;28;19967;-70
2022/03/24 03:57:04;;;;;;;;;;;;;;;3.07;nan;101666.88;5007931;28;20378;-70
2022/03/24 03:59:29;;;;;;;;;;;;;;;3.03;nan;101668.81;5007616;28;19921;-69
2022/03/24 04:01:57;;;;;;;;;;;;;;;3.01;nan;101668.03;5004329;28;19918;-69
2022/03/24 04:04:23;;;;;;;;;;;;;;;2.97;nan;101662.09;4995492;28;19918;-70
2022/03/24 04:06:48;;;;;;;;;;;;;;;2.95;nan;101670.94;5011316;28;19913;-70
2022/03/24 04:09:13;;;;;;;;;;;;;;;2.94;nan;101664.03;5005619;28;19917;-70
2022/03/24 04:11:39;;;;;;;;;;;;;;;2.93;nan;101667.53;5007914;28;20497;-69
2022/03/24 04:14:05;;;;;;;;;;;;;;;2.87;nan;101658.25;5010190;28;19921;-69
2022/03/24 04:16:30;;;;;;;;;;;;;;;2.83;nan;101664.53;5011115;28;19917;-69
2022/03/24 04:18:55;;;;;;;;;;;;;;;2.79;nan;101664.75;5009426;28;20277;-70
2022/03/24 04:21:20;;;;;;;;;;;;;;;2.74;nan;101658.00;5006279;28;19917;-69
2022/03/24 04:23:46;;;;;;;;;;;;;;;2.70;nan;101669.50;5011435;28;20321;-69
2022/03/24 04:26:11;;;;;;;;;;;;;;;2.68;nan;101666.13;5010277;28;19936;-69
2022/03/24 04:28:37;;;;;;;;;;;;;;;2.67;nan;101669.66;5007646;28;20458;-69
2022/03/24 04:31:02;;;;;;;;;;;;;;;2.64;nan;101661.09;5011070;28;20436;-69
2022/03/24 04:33:28;;;;;;;;;;;;;;;2.60;nan;101675.22;5013339;28;19912;-69
2022/03/24 04:35:53;;;;;;;;;;;;;;;2.58;nan;101677.09;5007469;28;20302;-69
2022/03/24 04:38:18;;;;;;;;;;;;;;;2.58;nan;101672.69;5010561;28;20003;-69
2022/03/24 04:40:44;;;;;;;;;;;;;;;2.59;nan;101673.53;5010171;28;20366;-69
2022/03/24 04:43:09;;;;;;;;;;;;;;;2.54;nan;101674.59;5010770;28;20252;-69
2022/03/24 04:45:35;;;;;;;;;;;;;;;2.51;nan;101682.56;5010584;28;19917;-69
2022/03/24 04:48:01;;;;;;;;;;;;;;;2.49;nan;101680.97;5010679;28;19964;-69
2022/03/24 04:50:26;;;;;;;;;;;;;;;2.43;nan;101676.00;5010286;28;20004;-69
2022/03/24 04:52:53;;;;;;;;;;;;;;;2.41;nan;101683.06;5009701;28;20356;-70
2022/03/24 04:55:18;;;;;;;;;;;;;;;2.37;nan;101677.16;5007288;28;20004;-69
2022/03/24 04:57:44;;;;;;;;;;;;;;;2.34;nan;101685.97;5010706;28;19928;-69
2022/03/24 05:00:10;;;;;;;;;;;;;;;2.31;nan;101678.28;5010021;28;20362;-69
2022/03/24 05:02:36;;;;;;;;;;;;;;;2.29;nan;101681.88;5008174;28;19928;-69
2022/03/24 05:05:01;;;;;;;;;;;;;;;2.25;nan;101677.72;5007877;28;19917;-69
2022/03/24 05:07:27;;;;;;;;;;;;;;;2.22;nan;101683.91;5004827;28;19975;-69
2022/03/24 05:09:53;;;;;;;;;;;;;;;2.21;nan;101682.22;5010692;28;19928;-69
2022/03/24 05:12:18;;;;;;;;;;;;;;;2.24;nan;101683.84;5009645;28;19921;-69
2022/03/24 05:14:44;;;;;;;;;;;;;;;2.23;nan;101687.38;5006699;28;19929;-69
2022/03/24 05:17:09;;;;;;;;;;;;;;;2.21;nan;101683.97;5010468;28;19975;-69
2022/03/24 05:19:34;;;;;;;;;;;;;;;2.18;nan;101678.91;5007963;28;19921;-69
2022/03/24 05:22:00;;;;;;;;;;;;;;;2.16;nan;101683.34;5006200;28;19918;-69
2022/03/24 05:24:25;;;;;;;;;;;;;;;2.13;nan;101684.34;5009921;28;19917;-69
2022/03/24 05:26:50;;;;;;;;;;;;;;;2.10;nan;101687.09;5009031;28;19917;-69
2022/03/24 05:29:16;;;;;;;;;;;;;;;2.11;nan;101684.38;5005552;28;20001;-69
2022/03/24 05:31:41;;;;;;;;;;;;;;;2.12;nan;101693.06;5012134;28;20416;-70
2022/03/24 05:34:06;;;;;;;;;;;;;;;2.09;nan;101688.81;5012039;28;19924;-70
2022/03/24 05:36:31;;;;;;;;;;;;;;;2.12;nan;101690.44;5012203;28;19967;-70
2022/03/24 05:38:57;;;;;;;;;;;;;;;2.12;nan;101693.94;5008700;28;19918;-70
2022/03/24 05:41:22;;;;;;;;;;;;;;;2.15;nan;101692.09;5005125;28;19917;-69
2022/03/24 05:44:02;;;;;;;;;;;;;;;2.18;nan;101697.19;5010271;28;19949;-69
2022/03/24 05:46:31;;;;;;;;;;;;;;;2.23;nan;101688.22;4997066;28;20004;-69
2022/03/24 05:48:56;;;;;;;;;;;;;;;2.29;nan;101700.16;5008894;28;19927;-69
2022/03/24 05:51:21;;;;;;;;;;;;;;;2.34;nan;101701.63;5005675;28;19929;-69
2022/03/24 05:53:46;;;;;;;;;;;;;;;2.36;nan;101693.75;5006647;28;19921;-70
2022/03/24 05:56:11;;;;;;;;;;;;;;;2.42;nan;101700.44;5007883;28;20039;-69
2022/03/24 05:58:37;;;;;;;;;;;;;;;2.46;nan;101697.63;5009124;28;20036;-69
2022/03/24 06:01:05;;;;;;;;;;;;;;;2.50;nan;101696.56;5009100;28;19918;-69
2022/03/24 06:03:30;;;;;;;;;;;;;;;2.55;nan;101704.16;5016426;28;19963;-69
2022/03/24 06:05:58;;;;;;;;;;;;;;;2.64;nan;101703.72;5016178;28;19960;-69
2022/03/24 06:08:23;;;;;;;;;;;;;;;2.88;nan;101704.34;5008163;28;19971;-70
2022/03/24 06:10:49;;;;;;;;;;;;;;;3.30;nan;101715.41;5005779;28;20008;-69
2022/03/24 06:13:14;;;;;;;;;;;;;;;3.79;nan;101719.03;5014336;28;19925;-69
2022/03/24 06:15:39;;;;;;;;;;;;;;;4.29;nan;101714.69;4999213;28;20338;-69
2022/03/24 06:18:04;;;;;;;;;;;;;;;4.79;nan;101705.84;4997337;28;19925;-70
2022/03/24 06:20:30;;;;;;;;;;;;;;;5.34;nan;101712.38;4999223;28;20333;-70
2022/03/24 06:22:55;;;;;;;;;;;;;;;5.89;nan;101708.25;5009278;28;20328;-69
2022/03/24 06:25:20;;;;;;;;;;;;;;;6.38;nan;101715.78;5008514;28;20410;-70
2022/03/24 06:27:50;;;;;;;;;;;;;;;6.93;nan;101712.28;5009006;28;19917;-70
2022/03/24 06:30:15;;;;;;;;;;;;;;;7.48;nan;101723.59;5005822;28;19924;-70
2022/03/24 06:32:40;;;;;;;;;;;;;;;8.00;nan;101720.06;5009057;28;19917;-70
2022/03/24 06:35:08;;;;;;;;;;;;;;;8.41;nan;101713.72;5016756;28;19914;-70
2022/03/24 06:37:40;;;;;;;;;;;;;;;8.86;nan;101715.81;5002560;28;19917;-70
2022/03/24 06:40:14;;;;;;;;;;;;;;;9.23;nan;101715.78;5008336;28;20432;-70
2022/03/24 06:42:40;;;;;;;;;;;;;;;9.75;nan;101722.41;5012296;28;19917;-71
2022/03/24 06:45:06;;;;;;;;;;;;;;;10.09;nan;101725.09;5009190;28;19921;-71
2022/03/24 06:47:32;;;;;;;;;;;;;;;10.33;nan;101723.22;5008768;28;20328;-71
2022/03/24 06:49:57;;;;;;;;;;;;;;;10.54;nan;101723.31;5012401;28;19914;-71
2022/03/24 06:52:22;;;;;;;;;;;;;;;10.68;nan;101722.22;5010221;28;19925;-71
2022/03/24 06:54:48;;;;;;;;;;;;;;;10.75;nan;101728.69;5013764;28;19996;-70
2022/03/24 06:57:14;;;;;;;;;;;;;;;10.89;nan;101719.63;5012775;28;21142;-70
2022/03/24 06:59:40;;;;;;;;;;;;;;;11.04;nan;101725.50;5013087;28;20163;-71
2022/03/24 07:02:06;;;;;;;;;;;;;;;11.26;nan;101717.47;5012314;28;20172;-71
2022/03/24 07:04:31;;;;;;;;;;;;;;;11.50;nan;101732.28;5012447;28;19917;-71
2022/03/24 07:06:57;;;;;;;;;;;;;;;11.76;nan;101727.44;5012666;28;20103;-71
2022/03/24 07:09:22;;;;;;;;;;;;;;;11.78;nan;101732.63;5017538;28;19917;-71
2022/03/24 07:11:47;;;;;;;;;;;;;;;12.02;nan;101740.31;5012723;28;19922;-71
2022/03/24 07:14:12;;;;;;;;;;;;;;;12.35;nan;101730.41;5011962;28;19917;-71
2022/03/24 07:16:38;;;;;;;;;;;;;;;12.67;nan;101730.25;5012872;28;19940;-71
2022/03/24 07:19:03;;;;;;;;;;;;;;;13.07;nan;101734.66;5012241;28;19925;-72
2022/03/24 07:21:29;;;;;;;;;;;;;;;13.40;nan;101737.91;5012526;28;19929;-71
2022/03/24 07:23:54;;;;;;;;;;;;;;;13.59;nan;101745.88;5018811;28;20462;-72
2022/03/24 07:26:19;;;;;;;;;;;;;;;13.88;nan;101744.97;5012163;28;20000;-71
2022/03/24 07:28:45;;;;;;;;;;;;;;;14.28;nan;101750.03;5012341;28;19956;-72
2022/03/24 07:31:14;;;;;;;;;;;;;;;14.63;nan;101748.47;5012022;28;20302;-72
2022/03/24 07:33:40;;;;;;;;;;;;;;;14.95;nan;101745.38;5018952;28;19936;-71
2022/03/24 07:36:06;;;;;;;;;;;;;;;15.25;nan;101751.31;5013846;28;20378;-72
2022/03/24 07:38:32;;;;;;;;;;;;;;;15.47;nan;101744.69;5012607;28;20394;-72
2022/03/24 07:40:57;;;;;;;;;;;;;;;15.70;nan;101755.72;5010285;28;19953;-72
2022/03/24 07:43:22;;;;;;;;;;;;;;;15.82;nan;101745.63;5012186;28;19917;-72
2022/03/24 07:45:48;;;;;;;;;;;;;;;15.97;nan;101751.22;5012187;28;19913;-72
2022/03/24 07:48:16;;;;;;;;;;;;;;;16.09;nan;101750.00;5011589;28;19971;-72
2022/03/24 07:50:42;;;;;;;;;;;;;;;16.18;nan;101741.00;5009932;28;19926;-72
2022/03/24 07:53:14;;;;;;;;;;;;;;;16.27;nan;101742.72;5016949;28;20352;-72
2022/03/24 07:55:44;;;;;;;;;;;;;;;16.45;nan;101744.50;5018133;28;19913;-72
2022/03/24 07:58:10;;;;;;;;;;;;;;;16.58;nan;101744.84;4993064;28;19921;-72
2022/03/24 08:00:35;;;;;;;;;;;;;;;16.89;nan;101749.66;5005891;28;19917;-72
2022/03/24 08:03:00;;;;;;;;;;;;;;;17.20;nan;101745.38;5010722;28;19917;-72
2022/03/24 08:05:26;;;;;;;;;;;;;;;17.50;nan;101740.38;5019639;28;19918;-72
2022/03/24 08:07:54;;;;;;;;;;;;;;;17.86;nan;101747.25;5011758;28;19913;-72
2022/03/24 08:10:19;;;;;;;;;;;;;;;18.12;nan;101749.69;5011124;28;19914;-72
2022/03/24 08:12:44;;;;;;;;;;;;;;;18.49;nan;101753.56;5012122;28;19927;-72
2022/03/24 08:15:09;;;;;;;;;;;;;;;18.60;nan;101751.34;5011809;28;20337;-72
2022/03/24 08:17:35;;;;;;;;;;;;;;;18.63;nan;101747.47;5011378;28;19917;-72
2022/03/24 08:20:00;;;;;;;;;;;;;;;18.89;nan;101748.03;5011510;28;19921;-72
2022/03/24 08:22:25;;;;;;;;;;;;;;;19.29;nan;101750.63;5010778;28;19917;-72
2022/03/24 08:24:50;;;;;;;;;;;;;;;19.54;nan;101740.50;5016068;28;19917;-72
2022/03/24 08:27:15;;;;;;;;;;;;;;;19.90;nan;101742.56;4996142;28;20374;-72
2022/03/24 08:29:41;;;;;;;;;;;;;;;20.36;nan;101747.75;5003951;28;19913;-72
2022/03/24 08:32:06;;;;;;;;;;;;;;;20.88;nan;101746.78;5009073;28;19918;-73
2022/03/24 08:34:31;;;;;;;;;;;;;;;21.01;nan;101751.44;5007059;28;20293;-72
2022/03/24 08:36:57;;;;;;;;;;;;;;;21.25;nan;101741.34;5011801;28;19920;-72
2022/03/24 08:39:22;;;;;;;;;;;;;;;21.53;nan;101749.50;5011544;28;20437;-73
2022/03/24 08:41:47;;;;;;;;;;;;;;;21.56;nan;101746.41;5010530;28;20016;-73
2022/03/24 08:44:13;;;;;;;;;;;;;;;21.84;nan;101747.22;5010378;28;19917;-72
2022/03/24 08:46:38;;;;;;;;;;;;;;;22.23;nan;101750.41;5010998;28;19913;-73
2022/03/24 08:49:03;;;;;;;;;;;;;;;22.63;nan;101743.31;5010692;28;19929;-72
2022/03/24 08:51:28;;;;;;;;;;;;;;;22.86;nan;101752.94;5010471;28;19944;-72
2022/03/24 08:53:53;;;;;;;;;;;;;;;23.14;nan;101741.19;5010409;28;20305;-73
2022/03/24 08:56:19;;;;;;;;;;;;;;;23.23;nan;101740.78;5008475;28;19919;-72
2022/03/24 08:58:44;;;;;;;;;;;;;;;23.57;nan;101746.19;5010866;28;19913;-73
2022/03/24 09:01:10;;;;;;;;;;;;;;;24.09;nan;101745.31;5011978;28;20392;-72
2022/03/24 09:03:36;;;;;;;;;;;;;;;24.16;nan;101753.41;5010908;28;19921;-72
2022/03/24 09:06:01;;;;;;;;;;;;;;;24.43;nan;101759.56;5010608;28;20271;-72
2022/03/24 09:08:26;;;;;;;;;;;;;;;25.17;nan;101763.63;5010256;28;19979;-72
2022/03/24 09:10:51;;;;;;;;;;;;;;;25.59;nan;101755.75;5010248;28;20305;-72
2022/03/24 09:13:17;;;;;;;;;;;;;;;25.79;nan;101754.75;5010296;28;19996;-71
2022/03/24 09:15:44;;;;;;;;;;;;;;;26.16;nan;101754.84;5009300;28;19952;-72
2022/03/24 09:18:10;;;;;;;;;;;;;;;26.56;nan;101759.81;5009895;28;19921;-72
2022/03/24 09:20:35;;;;;;;;;;;;;;;27.07;nan;101759.28;5016654;28;19920;-72
2022/03/24 09:23:00;;;;;;;;;;;;;;;27.18;nan;101762.28;5011948;28;20271;-72
2022/03/24 09:25:25;;;;;;;;;;;;;;;27.62;nan;101755.50;5010493;28;19914;-72
2022/03/24 09:27:50;;;;;;;;;;;;;;;27.82;nan;101762.50;5016330;28;20075;-72
2022/03/24 09:30:18;;;;;;;;;;;;;;;27.97;nan;101760.16;5015743;28;19933;-72
2022/03/24 09:32:45;;;;;;;;;;;;;;;27.76;nan;101753.38;5005364;28;20310;-72
2022/03/24 09:35:10;;;;;;;;;;;;;;;27.99;nan;101751.75;5011665;28;19918;-72
2022/03/24 09:37:36;;;;;;;;;;;;;;;28.50;nan;101750.94;5015260;28;19924;-72
2022/03/24 09:40:02;;;;;;;;;;;;;;;29.20;nan;101757.16;4996301;28;20409;-72
2022/03/24 09:42:28;;;;;;;;;;;;;;;29.89;nan;101753.31;5002412;28;19917;-73
2022/03/24 09:44:56;;;;;;;;;;;;;;;30.36;nan;101753.69;5009768;28;19924;-72
2022/03/24 09:47:22;;;;;;;;;;;;;;;30.65;nan;101757.06;5008147;28;19972;-72
2022/03/24 09:49:47;;;;;;;;;;;;;;;30.81;nan;101757.19;5009755;28;19913;-72
2022/03/24 09:52:12;;;;;;;;;;;;;;;30.70;nan;101750.78;5009629;28;19917;-72
2022/03/24 09:54:38;;;;;;;;;;;;;;;31.20;nan;101748.84;5010161;28;19917;-73
2022/03/24 09:57:04;;;;;;;;;;;;;;;31.59;nan;101749.44;5009836;28;19917;-72
2022/03/24 09:59:29;;;;;;;;;;;;;;;31.64;nan;101756.84;5009752;28;19913;-72
2022/03/24 10:01:55;;;;;;;;;;;;;;;32.14;nan;101750.03;5004134;28;19928;-72
2022/03/24 10:04:21;;;;;;;;;;;;;;;32.07;nan;101752.19;4990016;28;19968;-73
2022/03/24 10:07:00;;;;;;;;;;;;;;;32.03;nan;101749.16;5006326;28;20387;-72
2022/03/24 10:09:38;;;;;;;;;;;;;;;31.98;nan;101745.59;5001813;28;19943;-73
2022/03/24 10:12:05;;;;;;;;;;;;;;;31.99;nan;101747.22;5008551;28;20016;-73
2022/03/24 10:14:30;;;;;;;;;;;;;;;32.20;nan;101751.69;5014125;28;19923;-73
2022/03/24 10:17:04;;;;;;;;;;;;;;;32.74;nan;101747.78;5012362;28;19922;-72
2022/03/24 10:19:30;;;;;;;;;;;;;;;32.93;nan;101757.13;5007611;28;19914;-72
2022/03/24 10:21:56;;;;;;;;;;;;;;;32.16;nan;101745.13;5014253;28;19944;-72
2022/03/24 10:24:22;;;;;;;;;;;;;;;32.59;nan;101745.84;5013374;28;19921;-72
2022/03/24 10:26:48;;;;;;;;;;;;;;;31.36;nan;101742.41;5013793;28;20310;-72
2022/03/24 10:29:16;;;;;;;;;;;;;;;30.62;nan;101740.34;5010364;28;20389;-72
2022/03/24 10:31:43;;;;;;;;;;;;;;;31.48;nan;101743.06;5008570;28;19917;-72
2022/03/24 10:34:10;;;;;;;;;;;;;;;30.55;nan;101737.00;5004284;28;19914;-72
2022/03/24 10:36:35;;;;;;;;;;;;;;;30.12;nan;101725.81;4994289;28;19914;-72
2022/03/24 10:39:04;;;;;;;;;;;;;;;30.21;nan;101735.22;4994476;28;19913;-72
2022/03/24 10:41:33;;;;;;;;;;;;;;;30.50;nan;101726.03;5011250;28;19969;-72
2022/03/24 10:44:00;;;;;;;;;;;;;;;30.50;nan;101724.09;4995191;28;19941;-72
2022/03/24 10:46:29;;;;;;;;;;;;;;;30.79;nan;101721.13;4994378;28;19993;-72
2022/03/24 10:48:55;;;;;;;;;;;;;;;30.82;nan;101723.34;4993681;28;19996;-72
2022/03/24 10:51:24;;;;;;;;;;;;;;;30.32;nan;101713.53;5013312;28;20313;-72
2022/03/24 10:53:50;;;;;;;;;;;;;;;30.78;nan;101723.03;5014325;28;19913;-72
2022/03/24 10:56:18;;;;;;;;;;;;;;;30.87;nan;101715.25;5012741;28;19967;-72
2022/03/24 10:58:47;;;;;;;;;;;;;;;31.12;nan;101711.88;5012849;28;20567;-72
2022/03/24 11:01:14;;;;;;;;;;;;;;;31.55;nan;101710.03;5013514;28;19913;-72
2022/03/24 11:03:40;;;;;;;;;;;;;;;32.52;nan;101715.16;4993695;28;20389;-72
2022/03/24 11:06:19;;;;;;;;;;;;;;;31.98;nan;101710.84;5010130;28;19917;-72
2022/03/24 11:08:50;;;;;;;;;;;;;;;32.26;nan;101703.28;5011423;28;20318;-72
2022/03/24 11:11:16;;;;;;;;;;;;;;;32.11;nan;101706.81;5011191;28;19925;-72
2022/03/24 11:13:44;;;;;;;;;;;;;;;32.56;nan;101700.66;5012848;28;19913;-72
2022/03/24 11:16:11;;;;;;;;;;;;;;;32.88;nan;101707.00;5010997;28;19917;-72
2022/03/24 11:18:37;;;;;;;;;;;;;;;33.37;nan;101699.03;5011785;28;19918;-72
2022/03/24 11:21:04;;;;;;;;;;;;;;;33.78;nan;101696.22;5012200;28;20286;-72
2022/03/24 11:23:34;;;;;;;;;;;;;;;33.67;nan;101702.00;5011647;28;19917;-72
2022/03/24 11:26:02;;;;;;;;;;;;;;;34.41;nan;101698.41;5019788;28;20000;-72
2022/03/24 11:28:27;;;;;;;;;;;;;;;33.79;nan;101686.88;5019662;28;19956;-72
2022/03/24 11:30:52;;;;;;;;;;;;;;;33.77;nan;101691.00;5012479;28;20294;-72
2022/03/24 11:33:18;;;;;;;;;;;;;;;33.81;nan;101678.38;5012099;28;19913;-72
2022/03/24 11:35:43;;;;;;;;;;;;;;;33.78;nan;101676.19;5010643;28;19925;-72
2022/03/24 11:38:09;;;;;;;;;;;;;;;33.93;nan;101676.13;5012015;28;20354;-72
2022/03/24 11:40:35;;;;;;;;;;;;;;;33.72;nan;101680.84;5018594;28;20293;-72
2022/03/24 11:43:01;;;;;;;;;;;;;;;33.79;nan;101670.41;5012379;28;20028;-72
2022/03/24 11:45:26;;;;;;;;;;;;;;;33.68;nan;101659.75;5011481;28;20398;-72
2022/03/24 11:47:52;;;;;;;;;;;;;;;33.34;nan;101663.13;5011470;28;20413;-72
2022/03/24 11:50:32;;;;;;;;;;;;;;;32.81;nan;101655.19;5010954;28;19928;-72
2022/03/24 11:53:16;;;;;;;;;;;;;;;32.56;nan;101654.09;5011773;28;19924;-72
2022/03/24 11:56:03;;;;;;;;;;;;;;;31.48;nan;101644.66;5014210;28;20351;-72
2022/03/24 11:58:36;;;;;;;;;;;;;;;30.71;nan;101640.50;5005173;28;20112;-71
2022/03/24 12:01:17;;;;;;;;;;;;;;;29.76;nan;101638.09;5012909;28;20288;-72
2022/03/24 12:03:46;;;;;;;;;;;;;;;28.38;nan;101641.31;5004738;28;19913;-72
2022/03/24 12:06:13;;;;;;;;;;;;;;;26.82;nan;101631.91;5008749;28;20334;-72
2022/03/24 12:09:05;;;;;;;;;;;;;;;26.38;nan;101623.13;5000402;28;20192;-72
2022/03/24 12:11:30;;;;;;;;;;;;;;;25.85;nan;101621.91;4999638;28;19968;-72
2022/03/24 12:13:56;;;;;;;;;;;;;;;25.17;nan;101606.63;5013613;28;19921;-72
2022/03/24 12:16:23;;;;;;;;;;;;;;;24.75;nan;101613.59;5010009;28;19921;-72
2022/03/24 12:18:49;;;;;;;;;;;;;;;24.60;nan;101611.22;5010422;28;20115;-72
2022/03/24 12:21:25;;;;;;;;;;;;;;;24.22;nan;101609.31;5008138;28;19917;-72
2022/03/24 12:24:09;;;;;;;;;;;;;;;24.32;nan;101606.16;5022151;28;19964;-71
2022/03/24 12:26:59;;;;;;;;;;;;;;;24.07;nan;101604.19;5007822;28;19918;-71
2022/03/24 12:29:25;;;;;;;;;;;;;;;23.56;nan;101598.75;5003664;28;20421;-71
2022/03/24 12:31:53;;;;;;;;;;;;;;;23.37;nan;101601.28;5006463;28;19948;-71
2022/03/24 12:34:21;;;;;;;;;;;;;;;23.24;nan;101595.88;4999863;28;20306;-71
2022/03/24 12:36:46;;;;;;;;;;;;;;;23.00;nan;101584.72;4990937;28;19913;-72
2022/03/24 12:39:11;;;;;;;;;;;;;;;22.44;nan;101582.38;4990976;28;19920;-72
2022/03/24 12:41:37;;;;;;;;;;;;;;;22.71;nan;101579.69;5004032;28;19917;-71
2022/03/24 12:44:05;;;;;;;;;;;;;;;22.46;nan;101574.91;5010185;28;19941;-72
2022/03/24 12:46:35;;;;;;;;;;;;;;;21.87;nan;101572.84;5004532;28;19940;-72
2022/03/24 12:49:10;;;;;;;;;;;;;;;21.58;nan;101566.69;5001986;28;20393;-72
2022/03/24 12:51:47;;;;;;;;;;;;;;;21.54;nan;101566.25;5008951;28;19992;-71
2022/03/24 12:54:17;;;;;;;;;;;;;;;21.26;nan;101574.38;5015159;28;20068;-71
2022/03/24 12:56:43;;;;;;;;;;;;;;;21.09;nan;101557.66;5008690;28;19961;-71
2022/03/24 12:59:09;;;;;;;;;;;;;;;20.88;nan;101560.41;5010186;28;19964;-71
2022/03/24 13:01:35;;;;;;;;;;;;;;;20.85;nan;101556.25;5007825;28;19917;-71